createdAt,value
2023-05-22T00:01:46.847Z,20.20
2023-05-22T00:04:21.229Z,20.20
2023-05-22T00:06:50.863Z,20.20
2023-05-22T00:09:18.976Z,20.20
2023-05-22T00:11:47.157Z,20.20
2023-05-22T00:14:15.221Z,20.20
2023-05-22T00:16:43.272Z,20.10
2023-05-22T00:19:13.625Z,20.10
2023-05-22T00:21:41.829Z,20.10
2023-05-22T00:24:11.420Z,20.10
2023-05-22T00:26:39.498Z,20.10
2023-05-22T00:29:07.500Z,20.10
2023-05-22T00:31:35.516Z,20.10
2023-05-22T00:34:03.600Z,20.00
2023-05-22T00:36:31.627Z,20.00
2023-05-22T00:38:59.738Z,20.10
2023-05-22T00:41:29.489Z,20.00
2023-05-22T00:43:57.454Z,20.00
2023-05-22T00:46:25.457Z,20.00
2023-05-22T00:48:53.659Z,20.00
2023-05-22T00:51:22.351Z,19.90
2023-05-22T00:53:50.862Z,19.90
2023-05-22T00:56:19.710Z,19.90
2023-05-22T00:58:49.196Z,19.90
2023-05-22T01:01:17.855Z,19.80
2023-05-22T01:03:46.906Z,19.80
2023-05-22T01:06:15.807Z,19.80
2023-05-22T01:08:43.971Z,19.80
2023-05-22T01:11:15.229Z,19.80
2023-05-22T01:13:47.486Z,19.80
2023-05-22T01:16:21.984Z,19.70
2023-05-22T01:18:55.037Z,19.70
2023-05-22T01:21:30.128Z,19.70
2023-05-22T01:24:13.899Z,19.70
2023-05-22T01:26:59.567Z,19.60
2023-05-22T01:29:36.286Z,19.60
2023-05-22T01:32:06.657Z,19.60
2023-05-22T01:34:36.553Z,19.60
2023-05-22T01:37:05.444Z,19.50
2023-05-22T01:39:33.993Z,19.50
2023-05-22T01:42:02.378Z,19.50
2023-05-22T01:44:30.390Z,19.50
2023-05-22T01:47:00.567Z,19.40
2023-05-22T01:49:30.043Z,19.40
2023-05-22T01:51:59.030Z,19.40
2023-05-22T01:54:31.803Z,19.40
2023-05-22T01:57:02.754Z,19.40
2023-05-22T01:59:33.790Z,19.40
2023-05-22T02:02:04.409Z,19.30
2023-05-22T02:04:36.411Z,19.30
2023-05-22T02:07:05.081Z,19.20
2023-05-22T02:09:33.254Z,19.20
2023-05-22T02:12:01.646Z,19.20
2023-05-22T02:14:30.499Z,19.20
2023-05-22T02:16:58.560Z,19.10
2023-05-22T02:19:26.694Z,19.10
2023-05-22T02:21:56.130Z,19.10
2023-05-22T02:24:24.135Z,19.10
2023-05-22T02:26:52.131Z,19.00
2023-05-22T02:29:20.142Z,19.00
2023-05-22T02:31:48.660Z,19.00
2023-05-22T02:34:17.146Z,18.90
2023-05-22T02:36:45.164Z,18.90
2023-05-22T02:39:14.515Z,18.90
2023-05-22T02:41:45.468Z,18.80
2023-05-22T02:44:13.438Z,18.80
2023-05-22T02:46:41.505Z,18.80
2023-05-22T02:49:09.527Z,18.80
2023-05-22T02:51:37.566Z,18.80
2023-05-22T02:54:05.641Z,18.70
2023-05-22T02:56:35.037Z,18.70
2023-05-22T02:59:03.270Z,18.70
2023-05-22T03:01:31.418Z,18.70
2023-05-22T03:03:59.482Z,18.70
2023-05-22T03:06:28.087Z,18.70
2023-05-22T03:08:56.211Z,18.70
2023-05-22T03:11:24.367Z,18.70
2023-05-22T03:13:53.753Z,18.70
2023-05-22T03:16:21.860Z,18.70
2023-05-22T03:18:51.432Z,18.70
2023-05-22T03:21:19.497Z,18.70
2023-05-22T03:23:48.234Z,18.70
2023-05-22T03:26:16.538Z,18.70
2023-05-22T03:28:44.609Z,18.70
2023-05-22T03:31:14.010Z,18.60
2023-05-22T03:33:42.083Z,18.90
2023-05-22T03:36:10.151Z,18.60
2023-05-22T03:38:38.143Z,18.60
2023-05-22T03:41:06.716Z,18.60
2023-05-22T03:43:34.746Z,18.60
2023-05-22T03:46:02.818Z,18.50
2023-05-22T03:48:32.403Z,18.60
2023-05-22T03:51:00.402Z,18.60
2023-05-22T03:53:28.420Z,18.50
2023-05-22T03:55:57.910Z,18.50
2023-05-22T03:58:26.249Z,18.50
2023-05-22T04:00:54.334Z,18.50
2023-05-22T04:03:22.648Z,18.50
2023-05-22T04:05:52.470Z,18.40
2023-05-22T04:08:20.581Z,18.40
2023-05-22T04:10:48.844Z,18.40
2023-05-22T04:13:17.322Z,18.40
2023-05-22T04:15:46.257Z,18.40
2023-05-22T04:18:14.634Z,18.40
2023-05-22T04:20:43.136Z,18.40
2023-05-22T04:23:13.233Z,18.40
2023-05-22T04:25:41.276Z,18.40
2023-05-22T04:28:09.401Z,18.40
2023-05-22T04:30:40.200Z,18.40
2023-05-22T04:33:08.658Z,18.40
2023-05-22T04:35:36.811Z,18.40
2023-05-22T04:38:06.236Z,18.40
2023-05-22T04:40:38.088Z,18.40
2023-05-22T04:43:10.145Z,18.40
2023-05-22T04:45:38.136Z,18.40
2023-05-22T04:48:08.027Z,18.40
2023-05-22T04:50:38.949Z,18.40
2023-05-22T04:53:07.160Z,18.40
2023-05-22T04:55:36.979Z,18.40
2023-05-22T04:58:05.915Z,18.30
2023-05-22T05:00:33.966Z,18.30
2023-05-22T05:03:02.138Z,18.30
2023-05-22T05:05:30.248Z,18.30
2023-05-22T05:07:58.260Z,18.30
2023-05-22T05:10:26.311Z,18.30
2023-05-22T05:12:55.810Z,18.30
2023-05-22T05:15:23.951Z,18.30
2023-05-22T05:17:52.068Z,18.30
2023-05-22T05:20:20.068Z,18.30
2023-05-22T05:22:48.132Z,18.30
2023-05-22T05:25:16.129Z,18.30
2023-05-22T05:27:44.133Z,18.30
2023-05-22T05:30:13.735Z,18.30
2023-05-22T05:32:41.831Z,18.30
2023-05-22T05:35:10.366Z,18.30
2023-05-22T05:37:38.405Z,18.40
2023-05-22T05:40:07.285Z,18.40
2023-05-22T05:42:36.003Z,18.40
2023-05-22T05:45:04.051Z,18.40
2023-05-22T05:47:33.494Z,19.10
2023-05-22T05:50:01.493Z,18.50
2023-05-22T05:52:32.609Z,18.50
2023-05-22T05:55:00.967Z,18.50
2023-05-22T05:57:29.817Z,18.50
2023-05-22T05:59:58.093Z,18.50
2023-05-22T06:02:26.205Z,18.50
2023-05-22T06:05:09.580Z,18.50
2023-05-22T06:07:39.825Z,18.50
2023-05-22T06:10:08.383Z,18.50
2023-05-22T06:12:36.399Z,18.50
2023-05-22T06:15:04.931Z,18.50
2023-05-22T06:17:33.026Z,18.50
2023-05-22T06:20:02.493Z,18.50
2023-05-22T06:22:30.556Z,18.50
2023-05-22T06:24:58.600Z,18.60
2023-05-22T06:27:27.806Z,18.50
2023-05-22T06:29:56.583Z,18.50
2023-05-22T06:32:24.832Z,18.50
2023-05-22T06:34:53.193Z,18.50
2023-05-22T06:37:22.555Z,18.50
2023-05-22T06:39:50.566Z,18.50
2023-05-22T06:42:18.724Z,18.40
2023-05-22T06:44:46.797Z,18.40
2023-05-22T06:47:14.812Z,18.40
2023-05-22T06:49:42.857Z,18.40
2023-05-22T06:52:11.041Z,18.30
2023-05-22T06:54:42.892Z,18.20
2023-05-22T06:57:11.102Z,18.20
2023-05-22T06:59:39.129Z,18.20
2023-05-22T07:02:07.204Z,18.10
2023-05-22T07:04:35.251Z,18.10
2023-05-22T07:07:03.399Z,18.10
2023-05-22T07:09:31.407Z,18.10
2023-05-22T07:12:00.749Z,18.00
2023-05-22T07:14:28.739Z,17.70
2023-05-22T07:16:56.964Z,17.70
2023-05-22T07:19:25.162Z,17.60
2023-05-22T07:21:53.263Z,17.60
2023-05-22T07:24:21.255Z,17.70
2023-05-22T07:26:49.531Z,17.70
2023-05-22T07:29:19.511Z,17.70
2023-05-22T07:31:48.356Z,17.70
2023-05-22T07:34:16.570Z,17.70
2023-05-22T07:36:44.579Z,17.70
2023-05-22T07:39:12.642Z,17.70
2023-05-22T07:41:41.027Z,17.70
2023-05-22T07:44:09.013Z,17.70
2023-05-22T07:46:38.668Z,17.70
2023-05-22T07:49:07.182Z,17.60
2023-05-22T07:51:35.184Z,17.60
2023-05-22T07:54:03.167Z,17.60
2023-05-22T07:56:32.566Z,17.50
2023-05-22T07:59:01.078Z,17.40
2023-05-22T08:01:29.073Z,17.30
2023-05-22T08:03:58.855Z,17.30
2023-05-22T08:06:27.024Z,17.30
2023-05-22T08:08:55.052Z,17.30
2023-05-22T08:11:23.102Z,17.30
2023-05-22T08:13:51.088Z,17.30
2023-05-22T08:16:19.234Z,17.40
2023-05-22T08:18:47.350Z,17.10
2023-05-22T08:21:16.737Z,17.10
2023-05-22T08:23:44.718Z,17.10
2023-05-22T08:26:12.729Z,17.20
2023-05-22T08:28:44.141Z,17.20
2023-05-22T08:31:12.307Z,17.20
2023-05-22T08:33:41.034Z,17.20
2023-05-22T08:36:09.156Z,17.20
2023-05-22T08:38:38.660Z,17.30
2023-05-22T08:41:07.199Z,17.30
2023-05-22T08:43:35.300Z,17.30
2023-05-22T08:46:06.200Z,17.40
2023-05-22T08:48:34.344Z,17.40
2023-05-22T08:51:04.026Z,17.40
2023-05-22T08:53:34.113Z,17.50
2023-05-22T08:56:03.740Z,17.50
2023-05-22T08:58:32.431Z,17.50
2023-05-22T09:01:00.640Z,17.50
2023-05-22T09:03:28.845Z,17.50
2023-05-22T09:05:56.971Z,17.60
2023-05-22T09:08:24.987Z,17.60
2023-05-22T09:10:54.931Z,17.50
2023-05-22T09:13:28.581Z,17.60
2023-05-22T09:15:59.500Z,17.60
2023-05-22T09:18:30.823Z,17.60
2023-05-22T09:20:59.773Z,17.60
2023-05-22T09:23:28.580Z,17.60
2023-05-22T09:25:56.891Z,17.70
2023-05-22T09:28:25.088Z,17.70
2023-05-22T09:30:55.175Z,17.60
2023-05-22T09:33:24.167Z,17.70
2023-05-22T09:35:53.279Z,17.70
2023-05-22T09:38:23.026Z,17.70
2023-05-22T09:40:54.115Z,17.70
2023-05-22T09:43:23.264Z,17.70
2023-05-22T09:45:56.811Z,17.70
2023-05-22T09:48:26.612Z,17.70
2023-05-22T09:50:55.895Z,17.70
2023-05-22T09:53:27.064Z,17.80
2023-05-22T09:55:58.802Z,17.80
2023-05-22T09:58:27.670Z,17.90
2023-05-22T10:00:56.739Z,17.90
2023-05-22T10:03:27.460Z,17.90
2023-05-22T10:05:55.849Z,18.00
2023-05-22T10:08:26.138Z,18.00
2023-05-22T10:10:54.229Z,18.00
2023-05-22T10:13:22.385Z,18.10
2023-05-22T10:15:52.498Z,18.10
2023-05-22T10:18:20.764Z,18.20
2023-05-22T10:20:50.789Z,18.20
2023-05-22T10:23:18.833Z,18.20
2023-05-22T10:25:47.187Z,18.30
2023-05-22T10:28:16.225Z,18.30
2023-05-22T10:30:48.879Z,18.30
2023-05-22T10:33:19.182Z,18.40
2023-05-22T10:35:48.560Z,18.40
2023-05-22T10:38:27.169Z,18.50
2023-05-22T10:40:56.185Z,18.50
2023-05-22T10:43:24.345Z,18.50
2023-05-22T10:46:02.369Z,18.80
2023-05-22T10:48:31.759Z,18.50
2023-05-22T10:51:00.529Z,18.50
2023-05-22T10:53:34.332Z,18.60
2023-05-22T10:56:10.461Z,18.60
2023-05-22T10:58:38.865Z,18.60
2023-05-22T11:01:13.976Z,18.60
2023-05-22T11:03:55.454Z,18.50
2023-05-22T11:06:33.714Z,18.50
2023-05-22T11:09:17.302Z,18.50
2023-05-22T11:11:45.522Z,18.50
2023-05-22T11:14:14.092Z,18.50
2023-05-22T11:16:42.256Z,18.60
2023-05-22T11:19:22.592Z,18.60
2023-05-22T11:21:51.658Z,18.60
2023-05-22T11:24:21.210Z,18.70
2023-05-22T11:27:01.845Z,18.70
2023-05-22T11:29:30.557Z,18.70
2023-05-22T11:31:58.959Z,18.80
2023-05-22T11:34:27.935Z,18.80
2023-05-22T11:36:58.897Z,18.80
2023-05-22T11:39:28.437Z,18.90
2023-05-22T11:41:56.507Z,18.90
2023-05-22T11:44:24.646Z,19.00
2023-05-22T11:46:52.995Z,19.00
2023-05-22T11:49:23.955Z,19.10
2023-05-22T11:51:52.120Z,19.20
2023-05-22T11:54:20.226Z,19.20
2023-05-22T11:56:52.373Z,19.20
2023-05-22T11:59:22.086Z,19.20
2023-05-22T12:01:52.223Z,19.30
2023-05-22T12:04:20.298Z,19.30
2023-05-22T12:06:51.590Z,19.30
2023-05-22T12:09:19.811Z,19.30
2023-05-22T12:11:47.869Z,19.30
2023-05-22T12:14:17.277Z,19.40
2023-05-22T12:16:45.679Z,19.30
2023-05-22T12:19:14.584Z,19.20
2023-05-22T12:21:42.841Z,19.20
2023-05-22T12:24:10.946Z,19.20
2023-05-22T12:26:52.144Z,19.10
2023-05-22T12:29:20.558Z,19.10
2023-05-22T12:31:48.746Z,19.10
2023-05-22T12:34:17.274Z,19.10
2023-05-22T12:36:46.114Z,19.10
2023-05-22T12:39:17.030Z,19.10
2023-05-22T12:41:45.425Z,19.10
2023-05-22T12:44:16.494Z,19.10
2023-05-22T12:46:44.617Z,19.20
2023-05-22T12:49:12.821Z,19.20
2023-05-22T12:51:40.870Z,19.20
2023-05-22T12:54:08.875Z,19.20
2023-05-22T12:56:36.913Z,19.20
2023-05-22T12:59:05.034Z,19.20
2023-05-22T13:01:34.503Z,19.30
2023-05-22T13:04:04.906Z,19.30
2023-05-22T13:06:32.914Z,19.40
2023-05-22T13:09:01.292Z,19.40
2023-05-22T13:11:29.480Z,19.30
2023-05-22T13:13:57.570Z,19.30
2023-05-22T13:16:25.827Z,19.30
2023-05-22T13:18:55.364Z,19.40
2023-05-22T13:21:25.177Z,19.40
2023-05-22T13:23:54.608Z,19.40
2023-05-22T13:26:22.860Z,19.40
2023-05-22T13:28:51.659Z,19.50
2023-05-22T13:31:19.749Z,19.50
2023-05-22T13:33:48.114Z,19.50
2023-05-22T13:36:18.774Z,19.60
2023-05-22T13:38:46.878Z,19.60
2023-05-22T13:41:17.608Z,19.70
2023-05-22T13:43:45.621Z,19.90
2023-05-22T13:46:13.664Z,19.90
2023-05-22T13:48:41.763Z,20.10
2023-05-22T13:51:09.771Z,20.00
2023-05-22T13:53:39.504Z,20.20
2023-05-22T13:56:07.652Z,20.30
2023-05-22T13:58:35.759Z,20.40
2023-05-22T14:01:03.849Z,20.40
2023-05-22T14:03:31.968Z,20.50
2023-05-22T14:06:00.069Z,20.60
2023-05-22T14:08:28.233Z,20.70
2023-05-22T14:10:57.639Z,20.90
2023-05-22T14:13:28.279Z,20.90
2023-05-22T14:15:56.531Z,21.10
2023-05-22T14:18:24.610Z,21.40
2023-05-22T14:20:52.641Z,21.70
2023-05-22T14:23:20.753Z,22.00
2023-05-22T14:25:48.770Z,22.30
2023-05-22T14:28:18.263Z,22.60
2023-05-22T14:30:46.419Z,22.80
2023-05-22T14:33:14.659Z,22.90
2023-05-22T14:35:42.959Z,22.60
2023-05-22T14:38:11.146Z,22.30
2023-05-22T14:40:39.326Z,22.20
2023-05-22T14:43:07.434Z,22.20
2023-05-22T14:45:36.797Z,22.00
2023-05-22T14:48:05.119Z,22.10
2023-05-22T14:50:33.150Z,22.20
2023-05-22T14:53:01.199Z,22.30
2023-05-22T14:55:29.238Z,22.40
2023-05-22T14:57:57.447Z,22.60
2023-05-22T15:00:25.462Z,23.40
2023-05-22T15:02:55.046Z,23.50
2023-05-22T15:05:23.271Z,23.90
2023-05-22T15:07:51.745Z,23.60
2023-05-22T15:10:19.856Z,24.10
2023-05-22T15:12:47.837Z,24.40
2023-05-22T15:15:16.027Z,25.00
2023-05-22T15:17:44.225Z,25.20
2023-05-22T15:20:13.944Z,25.20
2023-05-22T15:22:41.971Z,24.90
2023-05-22T15:25:11.738Z,25.20
2023-05-22T15:27:40.370Z,25.40
2023-05-22T15:30:09.769Z,25.70
2023-05-22T15:32:38.304Z,25.70
2023-05-22T15:35:07.085Z,25.80
2023-05-22T15:37:37.034Z,25.80
2023-05-22T15:40:06.017Z,25.60
2023-05-22T15:42:34.669Z,25.80
2023-05-22T15:45:03.152Z,26.00
2023-05-22T15:47:31.736Z,25.90
2023-05-22T15:50:00.141Z,25.90
2023-05-22T15:52:30.619Z,26.10
2023-05-22T15:54:59.996Z,26.10
2023-05-22T15:57:28.172Z,26.50
2023-05-22T15:59:56.395Z,26.70
2023-05-22T16:02:25.394Z,26.70
2023-05-22T16:04:53.673Z,26.60
2023-05-22T16:07:21.708Z,25.50
2023-05-22T16:09:50.310Z,25.80
2023-05-22T16:12:20.040Z,25.60
2023-05-22T16:14:48.185Z,25.40
2023-05-22T16:17:16.236Z,25.30
2023-05-22T16:19:44.257Z,24.90
2023-05-22T16:22:15.210Z,24.90
2023-05-22T16:24:43.288Z,24.80
2023-05-22T16:27:11.530Z,24.70
2023-05-22T16:29:41.004Z,24.70
2023-05-22T16:32:09.331Z,24.80
2023-05-22T16:34:37.521Z,24.70
2023-05-22T16:37:05.872Z,24.80
2023-05-22T16:39:33.953Z,24.90
2023-05-22T16:42:02.076Z,24.90
2023-05-22T16:44:30.159Z,24.70
2023-05-22T16:46:59.587Z,24.50
2023-05-22T16:49:27.949Z,24.50
2023-05-22T16:51:55.996Z,24.50
2023-05-22T16:54:24.025Z,24.50
2023-05-22T16:56:52.069Z,24.30
2023-05-22T16:59:20.609Z,24.20
2023-05-22T17:01:48.832Z,24.20
2023-05-22T17:04:20.576Z,24.30
2023-05-22T17:06:48.840Z,24.20
2023-05-22T17:09:17.181Z,24.10
2023-05-22T17:11:45.202Z,24.00
2023-05-22T17:14:13.283Z,23.90
2023-05-22T17:16:41.320Z,23.70
2023-05-22T17:19:09.864Z,23.70
2023-05-22T17:21:39.298Z,23.70
2023-05-22T17:24:11.599Z,23.50
2023-05-22T17:26:41.630Z,23.50
2023-05-22T17:29:10.898Z,23.30
2023-05-22T17:31:39.593Z,23.20
2023-05-22T17:34:07.833Z,23.20
2023-05-22T17:36:36.029Z,23.20
2023-05-22T17:39:05.550Z,23.10
2023-05-22T17:41:33.843Z,22.90
2023-05-22T17:44:01.923Z,22.70
2023-05-22T17:46:30.079Z,22.60
2023-05-22T17:48:58.170Z,22.50
2023-05-22T17:51:26.233Z,22.50
2023-05-22T17:53:58.955Z,22.50
2023-05-22T17:56:28.374Z,22.30
2023-05-22T17:58:56.477Z,22.20
2023-05-22T18:01:27.104Z,22.10
2023-05-22T18:03:55.397Z,21.80
2023-05-22T18:06:24.394Z,21.70
2023-05-22T18:08:52.571Z,21.60
2023-05-22T18:11:21.115Z,21.50
2023-05-22T18:13:51.512Z,21.50
2023-05-22T18:16:19.736Z,21.40
2023-05-22T18:18:48.156Z,21.40
2023-05-22T18:21:16.305Z,21.30
2023-05-22T18:23:44.371Z,21.20
2023-05-22T18:26:12.379Z,21.20
2023-05-22T18:28:42.412Z,21.10
2023-05-22T18:31:11.809Z,21.00
2023-05-22T18:33:40.278Z,21.00
2023-05-22T18:36:08.343Z,20.90
2023-05-22T18:38:36.472Z,20.80
2023-05-22T18:41:04.615Z,20.70
2023-05-22T18:43:32.643Z,20.60
2023-05-22T18:46:00.704Z,20.60
2023-05-22T18:48:30.940Z,20.50
2023-05-22T18:50:59.188Z,20.40
2023-05-22T18:53:27.375Z,20.40
2023-05-22T18:55:55.539Z,20.30
2023-05-22T18:58:23.560Z,20.20
2023-05-22T19:00:52.124Z,20.10
2023-05-22T19:03:20.505Z,20.10
2023-05-22T19:05:49.913Z,20.00
2023-05-22T19:08:18.166Z,20.00
2023-05-22T19:10:46.348Z,20.50
2023-05-22T19:13:14.364Z,19.70
2023-05-22T19:15:42.362Z,19.60
2023-05-22T19:18:11.404Z,19.50
2023-05-22T19:20:39.741Z,19.30
2023-05-22T19:23:11.326Z,19.20
2023-05-22T19:25:39.334Z,19.10
2023-05-22T19:28:07.754Z,19.10
2023-05-22T19:30:35.939Z,19.00
2023-05-22T19:33:04.468Z,18.90
2023-05-22T19:35:33.962Z,18.70
2023-05-22T19:38:01.975Z,18.60
2023-05-22T19:40:31.434Z,18.50
2023-05-22T19:42:59.614Z,18.40
2023-05-22T19:45:27.774Z,18.40
2023-05-22T19:47:56.302Z,18.30
2023-05-22T19:50:24.357Z,18.20
2023-05-22T19:52:52.356Z,18.20
2023-05-22T19:55:20.360Z,18.10
2023-05-22T19:57:49.708Z,18.00
2023-05-22T20:00:20.781Z,18.00
2023-05-22T20:02:48.864Z,18.00
2023-05-22T20:05:17.060Z,17.90
2023-05-22T20:07:45.083Z,17.90
2023-05-22T20:10:13.096Z,17.80
2023-05-22T20:12:41.144Z,17.70
2023-05-22T20:15:14.626Z,17.70
2023-05-22T20:17:47.719Z,17.60
2023-05-22T20:20:29.870Z,17.60
2023-05-22T20:22:59.085Z,17.50
2023-05-22T20:25:27.201Z,17.50
2023-05-22T20:27:55.270Z,17.50
2023-05-22T20:30:27.598Z,17.40
2023-05-22T20:32:55.797Z,17.40
2023-05-22T20:35:23.963Z,17.40
2023-05-22T20:37:53.371Z,17.30
2023-05-22T20:40:21.782Z,17.30
2023-05-22T20:42:50.487Z,17.30
2023-05-22T20:45:20.714Z,17.40
2023-05-22T20:47:50.119Z,17.40
2023-05-22T20:50:18.277Z,17.30
2023-05-22T20:52:47.203Z,17.10
2023-05-22T20:55:25.433Z,17.00
2023-05-22T20:57:53.529Z,16.80
2023-05-22T21:00:21.863Z,16.70
2023-05-22T21:02:51.441Z,16.70
2023-05-22T21:05:19.479Z,16.60
2023-05-22T21:07:47.552Z,16.50
2023-05-22T21:10:15.644Z,16.40
2023-05-22T21:12:43.682Z,16.30
2023-05-22T21:15:12.099Z,16.20
2023-05-22T21:17:40.229Z,16.10
2023-05-22T21:20:10.220Z,16.00
2023-05-22T21:22:38.241Z,15.90
2023-05-22T21:25:06.794Z,15.90
2023-05-22T21:27:34.802Z,15.80
2023-05-22T21:30:02.822Z,15.80
2023-05-22T21:32:31.061Z,15.70
2023-05-22T21:34:59.070Z,15.60
2023-05-22T21:37:28.441Z,15.60
2023-05-22T21:39:56.480Z,15.50
2023-05-22T21:42:26.249Z,15.50
2023-05-22T21:44:54.644Z,15.50
2023-05-22T21:47:23.033Z,15.40
2023-05-22T21:49:51.130Z,15.40
2023-05-22T21:52:19.146Z,15.40
2023-05-22T21:54:48.504Z,15.30
2023-05-22T21:57:16.610Z,15.30
2023-05-22T21:59:44.678Z,15.30
2023-05-22T22:02:12.844Z,15.20
2023-05-22T22:04:41.153Z,15.20
2023-05-22T22:07:09.177Z,15.20
2023-05-22T22:09:37.293Z,15.10
2023-05-22T22:12:07.104Z,15.00
2023-05-22T22:14:35.269Z,15.00
2023-05-22T22:17:05.656Z,15.00
2023-05-22T22:19:34.255Z,14.90
2023-05-22T22:22:02.541Z,14.90
2023-05-22T22:24:30.622Z,14.90
2023-05-22T22:26:58.616Z,14.90
2023-05-22T22:29:28.243Z,14.90
2023-05-22T22:32:10.205Z,14.80
2023-05-22T22:34:38.293Z,14.80
2023-05-22T22:37:06.886Z,14.80
2023-05-22T22:39:34.896Z,14.80
2023-05-22T22:42:05.048Z,14.80
2023-05-22T22:44:34.490Z,14.80
2023-05-22T22:47:02.883Z,14.80
2023-05-22T22:49:31.670Z,14.70
2023-05-22T22:51:59.809Z,14.60
2023-05-22T22:54:27.927Z,14.80
2023-05-22T22:56:56.100Z,14.70
2023-05-22T22:59:24.151Z,14.60
2023-05-22T23:01:53.710Z,14.60
2023-05-22T23:04:22.013Z,14.60
2023-05-22T23:06:50.136Z,14.60
2023-05-22T23:09:18.135Z,14.60
2023-05-22T23:11:46.157Z,14.60
2023-05-22T23:14:14.158Z,14.50
2023-05-22T23:16:42.293Z,14.60
2023-05-22T23:19:11.964Z,14.60
2023-05-22T23:21:40.082Z,14.60
2023-05-22T23:24:08.325Z,14.50
2023-05-22T23:26:36.338Z,14.50
2023-05-22T23:29:04.389Z,14.50
2023-05-22T23:31:32.527Z,14.60
2023-05-22T23:34:00.542Z,14.50
2023-05-22T23:36:29.994Z,14.50
2023-05-22T23:38:57.994Z,14.50
2023-05-22T23:41:26.005Z,14.50
2023-05-22T23:43:57.378Z,14.50
2023-05-22T23:46:25.534Z,14.60
2023-05-22T23:48:53.606Z,14.60
2023-05-22T23:51:21.767Z,14.60
2023-05-22T23:53:51.152Z,14.60
2023-05-22T23:56:19.180Z,14.60
2023-05-22T23:58:47.196Z,14.60
